INFORMAÇÕES METEOROLÓGICAS
METAR FOR SBJV
ADDS - METARS form results

(2009 UTC 24 February 2020)
Data provider http://aviationweather.gov/metar/data/
 
Forecast for: SBJV (JOINVILLE , BR)
Text: TAF SBJV 241600Z 2418/2506 04005KT 9999 SCT035 TX30/2418Z TN20/2505Z
Forecast period: 1800 UTC 24 February 2020 to 0100 UTC 25 February 2020
Forecast type: FROM: standard forecast or significant change
Winds: from the NE (40 degrees) at 6 MPH (5 knots; 2.6 m/s)
Visibility: 6 or more miles 10+ km)
Ceiling: at least 12,000 feet AGL
Clouds: scattered clouds at 3500 feet AGL
Weather: no significant weather forecast for this period
Text: BECMG 2501/2503 CAVOK RMK PDY
Forecast period: 0100 to 0600 UTC 25 February 2020
Forecast type: BECOMING: Conditions expected to become as follows by 0300 UTC 25 February 2020
Winds: from the NE (40 degrees) at 6 MPH (5 knots; 2.6 m/s)
Visibility: 6 or more miles 10+ km)
Ceiling: unknown
Clouds: missing
Weather: NSW  (no significant weather)

 MAPA DO AEROPORTO

 INFORMAÇÕES DA PISTA
Pista 15 Tamanho da pista 5381 ft Largura da pista 148 ft
Elevação da pista 0 ft Ranhura da pista 330 ft Proa da pista 0
Pista 33 Tamanho da pista 5381 ft Largura da pista 148 ft
Elevação da pista 0 ft Ranhura da pista 0 ft Proa da pista 0

 FREQUÊNCIAS DO AEROPORTO
Tipo AFIS Nome TWR Frequência 118 MHZ

 AUXÍLIOS DE NAVEGAÇÃO PRÓXIMOS AO AEROPORTO
Tipo NDB Nome Gabi Frequência 245 KHZ
Tipo VOR-DME Nome Joinville Frequência 115100 KHZ



Powered by Sideral Virtual - 2019